Latest Weather Observations for Blackwater Airport

IDQ60801

Issued at 5:05 pm EST Wednesday 3 September 2014 (issued every 30 minutes, with the page automatically refreshed every 10 minutes)

About weather observations | Map of weather stations | Latest weather observations for QLD | Other Formats
Station Details ID: 035134 Name: BLACKWATER AIRPORT Lat: -23.60 Lon: 148.81 Height: 192.95 m
Data from the previous 72 hours. | See also: Recent months at Blackwater Airport
Date/Time
EST
Temp
°C
App
Temp
°C
Dew
Point
Rel
Hum
%
Delta-T
°C
Wind Press
QNH
hPa
Press
MSL
hPa
Rain
since 9 am
mm
Dir
 
Spd
km/h
Gust
km/h
Spd
kts
Gust
kts
03/05:00pm 22.1 14.7 -7.6 13 11.6 S 24 32 13 17 1015.0 1014.3 0.0
03/04:30pm 22.6 16.4 -5.3 15 11.5 SW 19 24 10 13 1014.7 1014.0 0.0
03/04:00pm 22.6 16.2 -5.3 15 11.5 S 20 32 11 17 1014.6 1013.8 0.0
03/03:30pm 23.1 15.9 -4.9 15 11.7 S 24 33 13 18 1014.6 1013.8 0.0
03/03:00pm 22.5 16.1 -4.5 16 11.3 S 20 30 11 16 1014.8 1014.1 0.0
03/02:30pm 22.0 15.7 -4.1 17 10.9 SSW 20 37 11 20 1015.0 1014.3 0.0
03/02:00pm 22.0 15.9 -4.1 17 10.9 S 19 33 10 18 1015.4 1014.7 0.0
03/01:30pm 21.7 14.4 -2.9 19 10.5 S 26 39 14 21 1015.9 1015.2 0.0
03/01:00pm 21.7 14.7 -3.6 18 10.7 S 24 35 13 19 1016.6 1015.9 0.0
03/12:30pm 20.1 13.8 -4.2 19 10.0 S 20 39 11 21 1017.1 1016.4 0.0
03/12:00pm 20.3 13.8 -2.7 21 9.7 SSW 22 30 12 16 1017.8 1017.1 0.0
03/11:30am 18.8 12.0 -1.6 25 8.7 S 24 33 13 18 1018.4 1017.7 0.0
03/11:00am 18.3 12.3 -1.5 26 8.4 S 20 33 11 18 1019.0 1018.3 0.0
03/10:30am 18.0 11.3 -0.8 28 8.1 S 24 35 13 19 1019.4 1018.8 0.0
03/10:00am 17.8 10.8 -0.5 29 7.9 S 26 35 14 19 1019.7 1019.0 0.0
03/09:30am 16.9 9.1 -0.8 30 7.6 S 30 43 16 23 1019.9 1019.2 0.0
03/09:00am 16.0 8.2 -0.7 32 7.1 S 30 43 16 23 1020.1 1019.4 0.0
03/08:30am 15.5 7.7 -0.7 33 6.8 S 30 41 16 22 1019.9 1019.2 0.0
03/08:00am 14.9 8.2 -0.8 34 6.6 S 24 32 13 17 1019.9 1019.2 0.0
03/07:30am 14.0 8.1 -0.8 36 6.1 S 20 28 11 15 1019.8 1019.1 0.0
03/07:00am 11.5 7.9 0.3 46 4.6 SSW 9 13 5 7 1019.4 1018.8 0.0
03/06:30am 9.6 5.0 -0.9 48 4.2 SSW 13 15 7 8 1018.8 1018.1 0.0
03/06:00am 10.7 5.8 -0.7 45 4.6 SSW 15 19 8 10 1018.3 1017.6 0.0
03/05:30am 12.3 6.6 -0.9 40 5.4 S 19 24 10 13 1017.8 1017.1 0.0
03/05:00am 13.3 7.1 -0.3 39 5.7 S 22 32 12 17 1017.3 1016.6 0.0
03/04:30am 13.4 7.2 -0.6 38 5.8 S 22 33 12 18 1017.0 1016.3 0.0
03/04:00am 14.2 7.3 0.1 38 6.0 S 26 35 14 19 1016.7 1016.0 0.0
03/03:30am 14.3 7.9 0.9 40 5.8 S 24 39 13 21 1016.4 1015.7 0.0
03/03:00am 14.9 8.5 1.1 39 6.0 S 24 35 13 19 1016.4 1015.7 0.0
03/02:30am 15.2 8.4 0.6 37 6.3 S 26 37 14 20 1016.6 1015.9 0.0
03/02:00am 15.6 9.1 0.6 36 6.5 S 24 33 13 18 1016.7 1016.0 0.0
03/01:30am 15.7 10.0 0.3 35 6.7 S 20 24 11 13 1016.9 1016.2 0.0
03/01:00am 13.7 8.3 -1.1 36 6.1 SSW 17 20 9 11 1017.1 1016.4 0.0
03/12:30am 14.7 9.7 -1.4 33 6.6 SSW 15 19 8 10 1016.8 1016.1 0.0
03/12:00am 14.7 9.6 -2.2 31 6.8 SSW 15 19 8 10 1016.8 1016.1 0.0
 
Date/Time
EST
Temp
°C
App
Temp
°C
Dew
Point
Rel
Hum
%
Delta-T
°C
Wind Press
QNH
hPa
Press
MSL
hPa
Rain
since 9 am
mm
Dir
 
Spd
km/h
Gust
km/h
Spd
kts
Gust
kts
02/11:30pm 15.3 9.8 -2.2 30 7.1 S 17 22 9 12 1016.5 1015.8 0.0
02/11:00pm 16.7 10.7 -1.9 28 7.7 S 20 24 11 13 1016.3 1015.6 0.0
02/10:30pm 17.6 11.5 -2.1 26 8.2 SSW 20 24 11 13 1016.0 1015.3 0.0
02/10:00pm 19.8 12.5 -2.5 22 9.4 SSW 26 32 14 17 1015.8 1015.1 0.0
02/09:30pm 20.9 13.1 -1.0 23 9.7 SW 30 39 16 21 1015.7 1015.0 0.0
02/09:00pm 21.2 13.9 -0.1 24 9.6 SW 28 39 15 21 1015.3 1014.6 0.0
02/08:30pm 20.8 14.7 0.1 25 9.3 SW 22 26 12 14 1014.8 1014.1 0.0
02/08:00pm 20.5 14.8 0.4 26 9.1 SW 20 24 11 13 1014.3 1013.5 0.0
02/07:30pm 20.7 15.2 0.5 26 9.2 SW 19 22 10 12 1013.9 1013.2 0.0
02/07:00pm 21.8 16.2 -0.2 23 9.9 SW 19 20 10 11 1013.5 1012.8 0.0
02/06:30pm 22.4 17.1 -0.3 22 10.3 WSW 17 20 9 11 1013.2 1012.5 0.0
02/06:00pm 24.9 18.6 -1.0 18 11.8 WSW 22 30 12 16 1012.9 1012.2 0.0
02/05:30pm 26.8 19.2 -2.0 15 13.1 WSW 28 35 15 19 1012.5 1011.8 0.0
02/05:00pm 28.0 20.7 -0.1 16 13.3 W 28 39 15 21 1012.2 1011.5 0.0
02/04:30pm 28.6 19.5 -0.5 15 13.8 W 37 46 20 25 1011.7 1011.0 0.0
02/04:28pm 28.9 19.8 -0.3 15 13.9 W 37 44 20 24 1011.7 1011.0 0.0
02/04:14pm 29.2 20.6 -0.1 15 14.0 WSW 35 44 19 24 1011.7 1011.0 0.0
02/04:00pm 29.0 20.0 -0.2 15 13.9 W 37 48 20 26 1011.6 1010.9 0.0
02/03:30pm 29.0 20.1 -2.2 13 14.4 W 35 48 19 26 1011.6 1010.9 0.0
02/03:10pm 29.7 21.5 0.3 15 14.2 WSW 33 52 18 28 1011.5 1010.8 0.0
02/03:00pm 29.6 21.6 0.2 15 14.2 W 32 46 17 25 1011.6 1010.9 0.0
02/02:32pm 29.6 21.6 0.2 15 14.2 W 32 50 17 27 1012.0 1011.3 0.0
02/02:30pm 29.4 21.4 0.1 15 14.1 W 32 48 17 26 1012.0 1011.3 0.0
02/02:16pm 28.9 22.2 3.7 20 12.8 W 28 44 15 24 1012.3 1011.6 0.0
02/02:00pm 28.9 24.6 6.9 25 11.9 WSW 19 22 10 12 1012.6 1011.9 0.0
02/01:30pm 28.5 23.2 6.6 25 11.7 W 24 37 13 20 1013.2 1012.5 0.0
02/01:00pm 28.2 21.3 6.3 25 11.6 WNW 32 46 17 25 1013.8 1013.1 0.0
02/12:55pm 27.9 21.7 6.1 25 11.5 W 28 46 15 25 1013.8 1013.1 0.0
02/12:30pm 27.8 22.9 7.1 27 11.1 NW 22 32 12 17 1014.4 1013.6 0.0
02/12:00pm 26.7 22.0 6.2 27 10.8 NW 20 32 11 17 1015.1 1014.4 0.0
02/11:30am 25.4 21.6 5.6 28 10.2 NNW 15 26 8 14 1015.5 1014.8 0.0
02/11:00am 24.2 20.5 6.5 32 9.2 WNW 15 24 8 13 1016.2 1015.5 0.0
02/10:30am 23.8 19.9 7.0 34 8.8 NNW 17 28 9 15 1016.8 1016.1 0.0
02/10:00am 22.1 19.2 6.3 36 8.1 WNW 11 19 6 10 1017.5 1016.8 0.0
02/09:30am 20.6 18.4 6.2 39 7.3 W 7 15 4 8 1017.8 1017.1 0.0
02/09:00am 19.3 16.0 6.4 43 6.5 NW 13 19 7 10 1018.3 1017.6 0.0
02/08:30am 17.7 15.1 7.7 52 5.1 NNW 11 15 6 8 1018.2 1017.5 0.0
02/08:00am 16.6 14.8 8.1 57 4.3 N 7 11 4 6 1018.2 1017.5 0.0
02/07:30am 15.1 13.8 9.2 68 3.1 NE 6 9 3 5 1018.1 1017.4 0.0
02/07:00am 13.0 11.7 9.1 77 2.0 E 6 7 3 4 1017.9 1017.2 0.0
02/06:30am 11.1 8.9 8.0 81 1.5 E 9 9 5 5 1017.6 1016.9 0.0
02/06:00am 10.8 8.5 7.5 80 1.6 ENE 9 11 5 6 1017.2 1016.5 0.0
02/05:30am 11.2 8.9 7.3 77 1.9 ENE 9 11 5 6 1017.3 1016.6 0.0
02/05:00am 11.6 8.9 7.5 76 2.0 NE 11 11 6 6 1017.2 1016.5 0.0
02/04:30am 11.7 9.3 7.2 74 2.2 ENE 9 13 5 7 1017.1 1016.4 0.0
02/04:00am 11.9 9.6 7.4 74 2.2 NE 9 11 5 6 1017.0 1016.3 0.0
02/03:30am 11.8 9.0 7.1 73 2.3 NE 11 11 6 6 1017.0 1016.3 0.0
02/03:00am 11.5 8.6 6.6 72 2.3 NE 11 13 6 7 1017.1 1016.4 0.0
02/02:30am 12.0 9.2 7.1 72 2.4 NE 11 13 6 7 1017.1 1016.4 0.0
02/02:00am 11.8 8.6 6.9 72 2.4 NE 13 13 7 7 1017.3 1016.6 0.0
02/01:30am 12.5 9.8 7.2 70 2.6 NNE 11 13 6 7 1017.6 1016.9 0.0
02/01:00am 13.3 11.0 7.5 68 2.9 NE 9 9 5 5 1017.9 1017.2 0.0
02/12:30am 13.4 11.5 7.6 68 2.9 ENE 7 11 4 6 1017.9 1017.2 0.0
02/12:00am 13.1 9.9 6.9 66 3.0 NE 13 15 7 8 1017.7 1017.0 0.0
 
Date/Time
EST
Temp
°C
App
Temp
°C
Dew
Point
Rel
Hum
%
Delta-T
°C
Wind Press
QNH
hPa
Press
MSL
hPa
Rain
since 9 am
mm
Dir
 
Spd
km/h
Gust
km/h
Spd
kts
Gust
kts
01/11:30pm 13.5 10.2 6.4 62 3.4 NE 13 17 7 9 1018.2 1017.5 0.0
01/11:00pm 14.4 11.2 7.0 61 3.6 ENE 13 17 7 9 1018.1 1017.4 0.0
01/10:30pm 15.2 11.7 7.0 58 4.1 ENE 15 19 8 10 1017.8 1017.1 0.0
01/10:00pm 15.2 12.0 6.7 57 4.2 E 13 15 7 8 1017.8 1017.1 0.0
01/09:30pm 15.0 12.7 5.8 54 4.4 ENE 7 13 4 7 1017.7 1017.0 0.0
01/09:00pm 15.2 11.5 4.3 48 5.1 NE 13 15 7 8 1017.4 1016.7 0.0
01/08:30pm 19.2 15.8 2.1 32 7.9 E 9 11 5 6 1017.2 1016.5 0.0
01/08:00pm 18.7 15.3 1.7 32 7.8 E 9 11 5 6 1016.8 1016.1 0.0
01/07:30pm 19.7 16.7 2.1 31 8.2 ENE 7 9 4 5 1016.9 1016.2 0.0
01/07:00pm 19.8 16.8 1.7 30 8.3 NE 7 9 4 5 1016.6 1015.9 0.0
01/06:30pm 20.9 19.2 1.7 28 8.9 CALM 0 0 0 0 1016.4 1015.7 0.0
01/06:00pm 22.5 19.0 1.5 25 9.8 NW 9 9 5 5 1016.2 1015.5 0.0
01/05:30pm 25.2 22.1 1.3 21 11.4 WNW 7 11 4 6 1015.8 1015.1 0.0
01/05:00pm 25.8 21.4 0.5 19 11.9 NW 13 17 7 9 1015.8 1015.1 0.0
01/04:30pm 26.3 22.7 0.9 19 12.1 WNW 9 13 5 7 1015.5 1014.8 0.0
01/04:00pm 26.7 22.0 1.2 19 12.2 N 15 20 8 11 1015.5 1014.8 0.0
01/03:30pm 26.3 22.5 1.6 20 11.9 NW 11 15 6 8 1015.6 1014.9 0.0
01/03:00pm 26.9 22.6 1.3 19 12.3 NW 13 20 7 11 1015.7 1015.0 0.0
01/02:30pm 26.1 22.7 2.1 21 11.7 SW 9 19 5 10 1016.2 1015.5 0.0
01/02:00pm 26.3 22.1 1.6 20 11.9 NNW 13 26 7 14 1016.5 1015.8 0.0
01/01:30pm 26.5 23.3 3.1 22 11.6 NW 9 20 5 11 1017.3 1016.6 0.0
01/01:00pm 26.0 21.1 2.0 21 11.6 NW 17 26 9 14 1017.8 1017.1 0.0
01/12:30pm 24.8 21.2 2.9 24 10.7 NW 11 20 6 11 1018.3 1017.6 0.0
01/12:00pm 25.1 21.6 3.7 25 10.6 N 11 20 6 11 1018.7 1018.0 0.0
01/11:30am 24.1 20.6 5.5 30 9.5 NNE 13 20 7 11 1019.2 1018.6 0.0
01/11:00am 24.3 21.5 7.0 33 9.1 N 11 17 6 9 1019.9 1019.2 0.0
01/10:30am 23.1 20.6 6.4 34 8.6 N 9 17 5 9 1020.1 1019.4 0.0
01/10:00am 22.2 18.6 6.8 37 7.9 N 15 20 8 11 1020.1 1019.4 0.0
01/09:30am 20.8 17.7 7.1 41 7.1 N 13 17 7 9 1020.4 1020.0 0.0
01/09:00am 19.4 17.0 7.2 45 6.2 N 9 15 5 8 1020.8 1020.4 0.0
01/08:30am 18.1 15.8 7.5 50 5.4 NNW 9 17 5 9 1021.0 1020.6 0.0
01/08:00am 16.7 15.8 7.9 56 4.5 NW 2 6 1 3 1020.9 1020.5 0.0
01/07:30am 14.0 12.5 8.6 70 2.7 SW 6 7 3 4 1020.4 1020.0 0.0
01/07:00am 10.6 8.7 6.9 78 1.8 WSW 6 9 3 5 1019.9 1019.5 0.0
01/06:30am 9.4 8.4 5.4 76 1.8 CALM 0 0 0 0 1019.1 1018.7 0.0
01/06:00am 9.1 7.6 5.1 76 1.8 NW 2 6 1 3 1018.8 1018.4 0.0
01/05:30am 10.9 9.1 7.0 77 1.9 ENE 6 11 3 6 1018.4 1018.0 0.0
01/05:00am 10.7 8.4 5.5 70 2.4 NE 7 11 4 6 1017.9 1017.5 0.0
01/04:30am 11.1 7.9 5.0 66 2.8 NE 11 13 6 7 1017.6 1017.2 0.0
01/04:00am 11.7 8.5 4.9 63 3.1 ENE 11 13 6 7 1017.6 1017.2 0.0
01/03:30am 12.1 9.8 5.7 65 3.0 ENE 7 11 4 6 1017.4 1017.0 0.0
01/03:00am 11.3 8.1 5.0 65 2.9 E 11 13 6 7 1017.3 1016.9 0.0
01/02:30am 12.2 9.2 6.0 66 2.9 E 11 13 6 7 1017.5 1017.1 0.0
01/02:00am 12.1 9.2 6.6 69 2.6 E 11 13 6 7 1017.8 1017.4 0.0
01/01:30am 11.4 8.1 4.8 64 3.0 E 11 13 6 7 1018.0 1017.6 0.0
01/01:00am 12.2 9.6 4.4 59 3.6 ESE 7 9 4 5 1018.3 1017.9 0.0
01/12:30am 12.3 10.9 3.3 54 4.0 CALM 0 0 0 0 1018.3 1017.9 0.0
01/12:00am 13.1 10.0 3.7 53 4.3 ENE 9 11 5 6 1018.3 1017.9 0.0
 
Date/Time
EST
Temp
°C
App
Temp
°C
Dew
Point
Rel
Hum
%
Delta-T
°C
Wind Press
QNH
hPa
Press
MSL
hPa
Rain
since 9 am
mm
Dir
 
Spd
km/h
Gust
km/h
Spd
kts
Gust
kts
31/11:30pm 13.8 9.8 3.0 48 4.9 ENE 13 15 7 8 1018.2 1017.8 0.0
31/11:00pm 14.7 9.5 0.2 37 6.2 ENE 17 20 9 11 1018.0 1017.6 0.0
31/10:30pm 15.9 10.2 -0.8 32 7.1 ENE 19 22 10 12 1017.7 1017.3 0.0
31/10:00pm 17.3 12.2 -1.9 27 8.0 E 15 15 8 8 1017.6 1017.2 0.0
31/09:30pm 17.2 12.8 -2.4 26 8.1 ESE 11 13 6 7 1017.5 1017.1 0.0
31/09:00pm 18.1 13.3 -2.8 24 8.6 ESE 13 15 7 8 1017.5 1017.1 0.0
31/08:30pm 18.3 13.5 -2.6 24 8.7 SE 13 17 7 9 1017.3 1016.9 0.0
31/08:00pm 17.1 12.8 -1.5 28 7.8 E 11 17 6 9 1017.1 1016.7 0.0
31/07:30pm 17.2 12.2 -1.4 28 7.9 S 15 17 8 9 1016.8 1016.4 0.0
31/07:00pm 17.2 12.8 -2.4 26 8.1 SSW 11 13 6 7 1016.5 1016.1 0.0
31/06:30pm 19.1 15.4 -3.1 22 9.2 SW 7 9 4 5 1016.2 1015.8 0.0
31/06:00pm 22.3 18.2 -3.1 18 10.9 WSW 9 11 5 6 1015.8 1015.4 0.0
31/05:30pm 24.8 20.6 -3.6 15 12.3 SSW 9 17 5 9 1015.5 1015.1 0.0

Other Formats:

Comma delimited format used in spreadsheet applications
http://www.bom.gov.au/fwo/IDQ60801/IDQ60801.94398.axf

JavaScript Object Notation format (JSON) in row-major order
http://www.bom.gov.au/fwo/IDQ60801/IDQ60801.94398.json